createdAt,value
2023-05-04T00:00:19.983Z,11.68
2023-05-04T00:02:47.152Z,11.85
2023-05-04T00:05:14.446Z,11.35
2023-05-04T00:07:41.647Z,11.85
2023-05-04T00:10:09.469Z,9.03
2023-05-04T00:12:36.518Z,12.75
2023-05-04T00:15:04.260Z,10.48
2023-05-04T00:17:31.859Z,9.93
2023-05-04T00:19:58.743Z,13.30
2023-05-04T00:22:25.718Z,10.55
2023-05-04T00:24:52.552Z,10.57
2023-05-04T00:27:19.536Z,9.75
2023-05-04T00:29:46.425Z,13.52
2023-05-04T00:32:13.385Z,12.40
2023-05-04T00:34:41.566Z,10.73
2023-05-04T00:37:09.119Z,13.27
2023-05-04T00:39:36.094Z,11.05
2023-05-04T00:42:03.204Z,12.23
2023-05-04T00:44:30.238Z,13.43
2023-05-04T00:46:57.631Z,10.25
2023-05-04T00:49:26.413Z,12.35
2023-05-04T00:51:54.932Z,12.07
2023-05-04T00:54:21.866Z,12.15
2023-05-04T00:56:49.383Z,12.50
2023-05-04T00:59:16.402Z,13.98
2023-05-04T01:01:43.263Z,12.73
2023-05-04T01:04:10.578Z,14.10
2023-05-04T01:07:01.287Z,12.97
2023-05-04T01:09:50.619Z,10.30
2023-05-04T01:12:40.772Z,11.93
2023-05-04T01:15:09.863Z,11.53
2023-05-04T01:17:36.931Z,12.98
2023-05-04T01:20:04.452Z,12.05
2023-05-04T01:22:31.777Z,11.70
2023-05-04T01:24:58.731Z,10.40
2023-05-04T01:27:44.615Z,11.98
2023-05-04T01:30:19.156Z,13.68
2023-05-04T01:32:47.292Z,11.82
2023-05-04T01:35:14.631Z,12.73
2023-05-04T01:37:41.677Z,13.65
2023-05-04T01:40:09.394Z,11.88
2023-05-04T01:42:36.273Z,9.65
2023-05-04T01:45:05.208Z,12.25
2023-05-04T01:47:32.277Z,11.90
2023-05-04T01:49:59.127Z,11.45
2023-05-04T01:52:25.972Z,11.15
2023-05-04T01:54:52.927Z,11.27
2023-05-04T01:57:19.801Z,14.15
2023-05-04T01:59:47.170Z,10.00
2023-05-04T02:02:14.155Z,12.87
2023-05-04T02:04:41.616Z,11.82
2023-05-04T02:07:08.468Z,12.75
2023-05-04T02:09:36.413Z,11.43
2023-05-04T02:12:03.536Z,11.57
2023-05-04T02:14:30.467Z,12.77
2023-05-04T02:16:57.803Z,10.55
2023-05-04T02:19:24.685Z,13.13
2023-05-04T02:21:52.462Z,10.80
2023-05-04T02:24:21.976Z,12.70
2023-05-04T02:26:48.859Z,13.23
2023-05-04T02:29:16.088Z,11.73
2023-05-04T02:31:43.057Z,10.75
2023-05-04T02:34:09.855Z,12.40
2023-05-04T02:36:47.150Z,12.45
2023-05-04T02:39:14.266Z,10.82
2023-05-04T02:41:41.089Z,9.85
2023-05-04T02:44:07.984Z,8.77
2023-05-04T02:46:34.821Z,16.70
2023-05-04T02:49:01.701Z,13.27
2023-05-04T02:51:28.652Z,9.77
2023-05-04T02:53:55.947Z,13.30
2023-05-04T02:56:24.404Z,12.63
2023-05-04T02:58:51.488Z,11.20
2023-05-04T03:01:18.500Z,10.32
2023-05-04T03:03:46.019Z,10.80
2023-05-04T03:06:12.962Z,11.02
2023-05-04T03:08:39.818Z,13.07
2023-05-04T03:11:06.596Z,14.50
2023-05-04T03:13:34.615Z,9.32
2023-05-04T03:16:02.658Z,11.45
2023-05-04T03:21:14.138Z,12.75
2023-05-04T03:23:42.029Z,11.60
2023-05-04T03:26:08.862Z,10.77
2023-05-04T03:28:36.231Z,13.35
2023-05-04T03:31:03.821Z,12.15
2023-05-04T03:33:30.774Z,12.77
2023-05-04T03:35:57.687Z,11.65
2023-05-04T03:38:24.457Z,11.48
2023-05-04T03:40:52.247Z,13.07
2023-05-04T03:43:19.113Z,11.27
2023-05-04T03:45:46.220Z,12.73
2023-05-04T03:48:13.160Z,9.68
2023-05-04T03:50:40.050Z,12.25
2023-05-04T03:53:08.246Z,13.50
2023-05-04T03:55:35.152Z,11.33
2023-05-04T03:58:03.540Z,14.48
2023-05-04T04:00:31.844Z,10.63
2023-05-04T04:03:08.558Z,13.25
2023-05-04T04:05:36.768Z,9.60
2023-05-04T04:08:03.947Z,14.43
2023-05-04T04:10:31.569Z,13.73
2023-05-04T04:12:58.527Z,10.65
2023-05-04T04:15:25.396Z,11.77
2023-05-04T04:17:52.271Z,10.07
2023-05-04T04:20:19.217Z,12.90
2023-05-04T04:22:46.224Z,11.70
2023-05-04T04:25:13.606Z,12.38
2023-05-04T04:27:41.258Z,11.10
2023-05-04T04:30:08.596Z,11.77
2023-05-04T04:32:36.083Z,11.45
2023-05-04T04:35:04.014Z,11.75
2023-05-04T04:37:31.140Z,10.05
2023-05-04T04:39:57.979Z,9.48
2023-05-04T04:42:24.921Z,14.73
2023-05-04T04:44:52.413Z,10.75
2023-05-04T04:47:19.206Z,11.60
2023-05-04T04:49:46.019Z,10.20
2023-05-04T04:52:13.010Z,9.82
2023-05-04T04:54:39.894Z,13.55
2023-05-04T04:57:06.787Z,11.73
2023-05-04T04:59:33.658Z,12.80
2023-05-04T05:02:00.729Z,11.05
2023-05-04T05:04:28.031Z,10.15
2023-05-04T05:06:54.942Z,9.57
2023-05-04T05:09:21.983Z,11.38
2023-05-04T05:11:48.910Z,12.90
2023-05-04T05:14:15.792Z,12.77
2023-05-04T05:16:42.824Z,11.55
2023-05-04T05:19:09.846Z,11.25
2023-05-04T05:21:36.692Z,12.30
2023-05-04T05:24:03.635Z,12.15
2023-05-04T05:26:30.511Z,13.70
2023-05-04T05:28:57.533Z,11.35
2023-05-04T05:31:24.671Z,9.63
2023-05-04T05:33:51.771Z,11.70
2023-05-04T05:36:18.813Z,12.38
2023-05-04T05:38:46.333Z,10.45
2023-05-04T05:41:15.323Z,12.87
2023-05-04T05:43:42.217Z,10.88
2023-05-04T05:46:09.510Z,11.63
2023-05-04T05:48:36.531Z,13.40
2023-05-04T05:51:04.076Z,12.27
2023-05-04T05:53:31.021Z,14.27
2023-05-04T05:55:58.023Z,10.40
2023-05-04T05:58:24.880Z,12.55
2023-05-04T06:00:51.915Z,13.35
2023-05-04T06:03:19.026Z,12.60
2023-05-04T06:05:46.212Z,11.37
2023-05-04T06:08:13.075Z,11.65
2023-05-04T06:10:39.987Z,11.05
2023-05-04T06:13:06.859Z,11.10
2023-05-04T06:15:34.802Z,12.90
2023-05-04T06:18:01.705Z,12.32
2023-05-04T06:20:29.263Z,12.18
2023-05-04T06:22:57.111Z,11.93
2023-05-04T06:25:24.174Z,16.23
2023-05-04T06:27:51.355Z,13.13
2023-05-04T06:30:19.180Z,9.95
2023-05-04T06:32:46.934Z,11.57
2023-05-04T06:35:13.994Z,12.30
2023-05-04T06:37:41.714Z,11.63
2023-05-04T06:40:09.376Z,11.38
2023-05-04T06:42:36.530Z,13.02
2023-05-04T06:45:03.664Z,9.73
2023-05-04T06:47:31.015Z,9.70
2023-05-04T06:49:57.863Z,14.98
2023-05-04T06:52:24.746Z,8.90
2023-05-04T06:54:51.711Z,11.45
2023-05-04T06:57:18.582Z,11.05
2023-05-04T06:59:45.945Z,11.53
2023-05-04T07:02:12.724Z,10.27
2023-05-04T07:04:39.639Z,11.98
2023-05-04T07:07:06.699Z,10.33
2023-05-04T07:09:34.067Z,11.00
2023-05-04T07:12:01.922Z,12.48
2023-05-04T07:14:28.763Z,10.07
2023-05-04T07:16:55.702Z,10.40
2023-05-04T07:19:22.764Z,7.97
2023-05-04T07:21:49.719Z,12.40
2023-05-04T07:24:16.567Z,8.55
2023-05-04T07:26:43.344Z,9.48
2023-05-04T07:29:10.302Z,6.60
2023-05-04T07:31:38.392Z,11.05
2023-05-04T07:34:06.367Z,8.57
2023-05-04T07:36:35.651Z,12.47
2023-05-04T07:39:02.504Z,9.47
2023-05-04T07:41:29.626Z,10.00
2023-05-04T07:43:56.541Z,9.57
2023-05-04T07:46:23.453Z,10.05
2023-05-04T07:48:50.545Z,9.75
2023-05-04T07:51:17.552Z,8.52
2023-05-04T07:53:44.518Z,10.27
2023-05-04T07:56:12.804Z,8.02
2023-05-04T07:58:39.986Z,9.68
2023-05-04T08:01:06.857Z,7.25
2023-05-04T08:03:33.868Z,8.35
2023-05-04T08:06:00.756Z,8.07
2023-05-04T08:08:27.727Z,6.93
2023-05-04T08:10:56.251Z,8.68
2023-05-04T08:13:28.954Z,5.40
2023-05-04T08:16:01.047Z,9.75
2023-05-04T08:18:28.303Z,5.05
2023-05-04T08:20:55.263Z,8.85
2023-05-04T08:23:22.229Z,8.77
2023-05-04T08:25:49.101Z,8.48
2023-05-04T08:28:15.970Z,9.20
2023-05-04T08:30:43.477Z,9.55
2023-05-04T08:33:10.422Z,6.97
2023-05-04T08:35:37.989Z,7.38
2023-05-04T08:38:05.041Z,5.15
2023-05-04T08:40:33.052Z,6.57
2023-05-04T08:43:00.041Z,6.77
2023-05-04T08:45:28.547Z,9.13
2023-05-04T08:47:55.524Z,6.97
2023-05-04T08:50:22.730Z,8.65
2023-05-04T08:52:50.277Z,7.25
2023-05-04T08:55:17.948Z,8.90
2023-05-04T08:57:45.094Z,8.27
2023-05-04T09:00:16.366Z,6.18
2023-05-04T09:02:44.325Z,7.28
2023-05-04T09:05:12.143Z,8.02
2023-05-04T09:07:39.021Z,8.73
2023-05-04T09:10:06.512Z,6.55
2023-05-04T09:12:33.693Z,7.22
2023-05-04T09:15:02.747Z,9.38
2023-05-04T09:17:29.923Z,10.15
2023-05-04T09:20:04.864Z,5.73
2023-05-04T09:22:32.071Z,7.70
2023-05-04T09:25:25.356Z,7.03
2023-05-04T09:27:55.020Z,7.47
2023-05-04T09:30:22.244Z,8.25
2023-05-04T09:32:49.767Z,8.60
2023-05-04T09:35:31.895Z,8.38
2023-05-04T09:38:00.373Z,8.70
2023-05-04T09:40:30.981Z,8.38
2023-05-04T09:42:57.947Z,6.80
2023-05-04T09:45:24.897Z,8.23
2023-05-04T09:47:53.200Z,5.32
2023-05-04T09:50:23.294Z,10.63
2023-05-04T09:52:50.639Z,11.57
2023-05-04T09:55:19.466Z,9.20
2023-05-04T09:57:48.604Z,5.47
2023-05-04T10:00:17.327Z,8.02
2023-05-04T10:02:45.325Z,9.93
2023-05-04T10:05:18.159Z,6.82
2023-05-04T10:07:45.357Z,9.80
2023-05-04T10:10:13.434Z,5.83
2023-05-04T10:12:40.544Z,12.02
2023-05-04T10:15:09.302Z,9.93
2023-05-04T10:17:48.242Z,11.15
2023-05-04T10:20:38.482Z,8.45
2023-05-04T10:23:09.370Z,8.02
2023-05-04T10:26:04.403Z,10.73
2023-05-04T10:28:40.491Z,9.70
2023-05-04T10:31:07.593Z,7.80
2023-05-04T10:33:41.931Z,7.07
2023-05-04T10:36:10.009Z,9.10
2023-05-04T10:38:38.946Z,8.35
2023-05-04T10:41:15.590Z,9.52
2023-05-04T10:43:42.991Z,6.47
2023-05-04T10:46:21.381Z,9.33
2023-05-04T10:48:48.842Z,9.15
2023-05-04T10:51:32.752Z,8.80
2023-05-04T10:54:03.289Z,9.60
2023-05-04T10:56:30.415Z,11.70
2023-05-04T10:59:08.024Z,10.25
2023-05-04T11:01:45.428Z,8.40
2023-05-04T11:04:22.531Z,9.43
2023-05-04T11:07:02.161Z,9.43
2023-05-04T11:09:41.456Z,8.00
2023-05-04T11:12:12.163Z,11.40
2023-05-04T11:14:43.351Z,8.73
2023-05-04T11:19:50.980Z,6.95
2023-05-04T11:22:18.549Z,7.53
2023-05-04T11:24:46.546Z,9.20
2023-05-04T11:27:23.751Z,10.13
2023-05-04T11:30:01.046Z,11.30
2023-05-04T11:32:38.028Z,10.37
2023-05-04T11:35:08.624Z,6.80
2023-05-04T11:37:43.480Z,8.02
2023-05-04T11:40:15.261Z,10.90
2023-05-04T11:42:43.095Z,10.18
2023-05-04T11:45:17.940Z,9.85
2023-05-04T11:47:45.990Z,7.72
2023-05-04T11:50:14.839Z,9.25
2023-05-04T11:52:42.092Z,9.40
2023-05-04T11:55:13.449Z,7.57
2023-05-04T11:57:40.476Z,10.57
2023-05-04T12:00:09.046Z,9.32
2023-05-04T12:02:36.370Z,12.70
2023-05-04T12:05:03.984Z,12.55
2023-05-04T12:07:37.234Z,13.65
2023-05-04T12:10:04.291Z,16.83
2023-05-04T12:12:36.252Z,16.75
2023-05-04T12:15:03.283Z,9.75
2023-05-04T12:17:41.391Z,11.57
2023-05-04T12:20:08.842Z,8.85
2023-05-04T12:22:36.046Z,8.05
2023-05-04T12:25:03.035Z,10.07
2023-05-04T12:27:29.904Z,12.80
2023-05-04T12:29:56.906Z,11.60
2023-05-04T12:32:23.829Z,17.77
2023-05-04T12:34:50.831Z,15.20
2023-05-04T12:37:17.832Z,14.15
2023-05-04T12:39:45.959Z,12.50
2023-05-04T12:42:12.784Z,11.25
2023-05-04T12:44:39.680Z,11.45
2023-05-04T12:47:06.937Z,12.10
2023-05-04T12:49:33.941Z,12.80
2023-05-04T12:52:00.868Z,14.13
2023-05-04T12:54:27.693Z,13.77
2023-05-04T12:56:54.619Z,13.65
2023-05-04T12:59:22.616Z,14.27
2023-05-04T13:01:49.574Z,13.95
2023-05-04T13:04:16.706Z,9.63
2023-05-04T13:06:44.591Z,14.32
2023-05-04T13:09:12.988Z,14.23
2023-05-04T13:11:39.899Z,15.30
2023-05-04T13:14:07.570Z,15.52
2023-05-04T13:16:34.647Z,12.53
2023-05-04T13:19:01.559Z,13.48
2023-05-04T13:21:28.432Z,19.40
2023-05-04T13:23:55.694Z,15.23
2023-05-04T13:26:22.588Z,15.05
2023-05-04T13:28:50.852Z,12.98
2023-05-04T13:31:17.830Z,13.73
2023-05-04T13:33:46.275Z,12.27
2023-05-04T13:36:13.142Z,13.40
2023-05-04T13:38:40.126Z,16.85
2023-05-04T13:41:07.136Z,17.67
2023-05-04T13:43:34.032Z,17.25
2023-05-04T13:46:04.820Z,18.50
2023-05-04T13:48:33.852Z,13.52
2023-05-04T13:51:03.922Z,12.38
2023-05-04T13:53:30.823Z,11.63
2023-05-04T13:55:57.788Z,17.52
2023-05-04T13:58:24.659Z,18.92
2023-05-04T14:00:51.594Z,14.30
2023-05-04T14:03:18.465Z,12.27
2023-05-04T14:05:45.297Z,15.30
2023-05-04T14:08:13.164Z,14.65
2023-05-04T14:10:40.095Z,14.45
2023-05-04T14:13:07.365Z,17.40
2023-05-04T14:15:34.614Z,12.25
2023-05-04T14:18:01.612Z,19.00
2023-05-04T14:20:28.522Z,21.23
2023-05-04T14:22:55.478Z,14.70
2023-05-04T14:25:22.449Z,15.87
2023-05-04T14:27:49.412Z,14.55
2023-05-04T14:30:16.434Z,15.13
2023-05-04T14:32:43.497Z,14.63
2023-05-04T14:35:11.187Z,21.97
2023-05-04T14:37:39.472Z,12.97
2023-05-04T14:40:09.287Z,15.60
2023-05-04T14:42:37.271Z,13.98
2023-05-04T14:45:05.654Z,15.65
2023-05-04T14:47:33.843Z,14.90
2023-05-04T14:50:04.121Z,20.63
2023-05-04T14:52:31.160Z,15.80
2023-05-04T14:54:58.058Z,16.13
2023-05-04T14:57:24.994Z,14.93
2023-05-04T14:59:52.134Z,15.27
2023-05-04T15:02:19.360Z,14.55
2023-05-04T15:04:46.988Z,18.00
2023-05-04T15:07:18.648Z,19.33
2023-05-04T15:09:45.645Z,13.17
2023-05-04T15:12:12.546Z,17.23
2023-05-04T15:14:39.405Z,21.67
2023-05-04T15:17:07.397Z,12.50
2023-05-04T15:19:38.096Z,18.05
2023-05-04T15:22:05.697Z,17.27
2023-05-04T15:24:32.890Z,20.38
2023-05-04T15:26:59.768Z,13.98
2023-05-04T15:29:26.975Z,13.95
2023-05-04T15:31:55.007Z,14.10
2023-05-04T15:34:21.856Z,14.60
2023-05-04T15:36:48.698Z,14.20
2023-05-04T15:39:15.617Z,16.98
2023-05-04T15:41:43.013Z,18.23
2023-05-04T15:44:10.118Z,14.10
2023-05-04T15:46:37.543Z,20.45
2023-05-04T15:49:04.484Z,15.60
2023-05-04T15:51:31.941Z,18.57
2023-05-04T15:54:00.430Z,15.20
2023-05-04T15:56:27.982Z,18.73
2023-05-04T15:58:54.949Z,23.23
2023-05-04T16:01:21.914Z,18.27
2023-05-04T16:03:48.902Z,16.02
2023-05-04T16:06:17.538Z,12.23
2023-05-04T16:08:44.399Z,13.73
2023-05-04T16:11:11.443Z,17.75
2023-05-04T16:13:38.808Z,17.77
2023-05-04T16:16:06.322Z,16.00
2023-05-04T16:18:33.152Z,20.80
2023-05-04T16:21:00.123Z,13.52
2023-05-04T16:23:28.166Z,15.82
2023-05-04T16:25:55.074Z,17.10
2023-05-04T16:28:21.946Z,19.95
2023-05-04T16:30:49.625Z,17.88
2023-05-04T16:33:16.405Z,14.95
2023-05-04T16:35:43.330Z,15.48
2023-05-04T16:38:13.180Z,17.92
2023-05-04T16:40:42.299Z,14.65
2023-05-04T16:43:10.512Z,16.83
2023-05-04T16:45:38.330Z,15.65
2023-05-04T16:48:06.338Z,14.07
2023-05-04T16:50:33.491Z,15.93
2023-05-04T16:53:00.591Z,13.95
2023-05-04T16:55:27.473Z,12.35
2023-05-04T16:57:58.282Z,18.20
2023-05-04T17:00:25.770Z,14.40
2023-05-04T17:02:52.968Z,12.30
2023-05-04T17:05:20.502Z,12.03
2023-05-04T17:07:47.694Z,13.60
2023-05-04T17:10:18.717Z,14.00
2023-05-04T17:12:45.684Z,14.43
2023-05-04T17:15:13.008Z,16.35
2023-05-04T17:17:40.994Z,16.25
2023-05-04T17:20:09.479Z,12.50
2023-05-04T17:22:36.958Z,15.43
2023-05-04T17:25:04.059Z,14.07
2023-05-04T17:27:31.028Z,16.93
2023-05-04T17:29:58.061Z,13.70
2023-05-04T17:32:24.923Z,18.50
2023-05-04T17:34:51.838Z,12.65
2023-05-04T17:37:18.690Z,18.95
2023-05-04T17:39:47.147Z,10.07
2023-05-04T17:42:16.026Z,15.35
2023-05-04T17:44:43.035Z,16.98
2023-05-04T17:47:10.167Z,14.25
2023-05-04T17:49:37.118Z,15.00
2023-05-04T17:52:04.415Z,17.38
2023-05-04T17:54:31.288Z,15.07
2023-05-04T17:56:58.219Z,17.58
2023-05-04T17:59:25.105Z,17.77
2023-05-04T18:01:52.005Z,14.43
2023-05-04T18:04:18.777Z,14.18
2023-05-04T18:06:45.826Z,14.48
2023-05-04T18:09:12.720Z,14.38
2023-05-04T18:11:39.863Z,17.93
2023-05-04T18:14:07.137Z,13.77
2023-05-04T18:16:36.218Z,16.67
2023-05-04T18:19:03.154Z,14.83
2023-05-04T18:21:30.107Z,14.20
2023-05-04T18:23:57.005Z,16.35
2023-05-04T18:26:23.790Z,14.68
2023-05-04T18:28:50.734Z,12.43
2023-05-04T18:31:18.900Z,15.93
2023-05-04T18:33:45.749Z,15.20
2023-05-04T18:36:12.660Z,11.15
2023-05-04T18:38:39.752Z,9.85
2023-05-04T18:41:06.741Z,12.52
2023-05-04T18:43:33.558Z,16.08
2023-05-04T18:46:07.497Z,17.17
2023-05-04T18:48:34.525Z,25.42
2023-05-04T18:51:02.084Z,26.02
2023-05-04T18:53:29.130Z,28.15
2023-05-04T18:56:10.460Z,21.30
2023-05-04T18:58:38.739Z,15.57
2023-05-04T19:01:06.216Z,14.98
2023-05-04T19:03:33.633Z,12.30
2023-05-04T19:06:00.593Z,9.13
2023-05-04T19:08:27.560Z,13.43
2023-05-04T19:10:58.469Z,21.65
2023-05-04T19:13:25.490Z,13.07
2023-05-04T19:15:52.456Z,9.40
2023-05-04T19:18:19.561Z,11.50
2023-05-04T19:20:46.579Z,12.88
2023-05-04T19:23:13.446Z,10.27
2023-05-04T19:25:40.660Z,10.40
2023-05-04T19:28:10.747Z,12.18
2023-05-04T19:30:39.072Z,14.25
2023-05-04T19:33:09.623Z,13.90
2023-05-04T19:35:36.583Z,14.40
2023-05-04T19:38:06.189Z,10.20
2023-05-04T19:40:34.385Z,10.38
2023-05-04T19:43:01.392Z,9.75
2023-05-04T19:45:28.254Z,12.43
2023-05-04T19:47:55.132Z,9.65
2023-05-04T19:50:22.220Z,12.20
2023-05-04T19:52:49.115Z,11.07
2023-05-04T19:55:16.900Z,8.43
2023-05-04T19:57:44.054Z,10.02
2023-05-04T20:00:11.402Z,12.20
2023-05-04T20:02:41.165Z,14.02
2023-05-04T20:05:08.479Z,11.70
2023-05-04T20:07:35.463Z,11.65
2023-05-04T20:10:03.125Z,11.85
2023-05-04T20:12:30.048Z,10.32
2023-05-04T20:14:57.045Z,10.85
2023-05-04T20:17:24.090Z,8.88
2023-05-04T20:19:51.011Z,8.52
2023-05-04T20:22:17.896Z,10.27
2023-05-04T20:24:45.051Z,15.75
2023-05-04T20:27:12.456Z,8.57
2023-05-04T20:29:39.562Z,9.48
2023-05-04T20:32:07.402Z,11.00
2023-05-04T20:34:34.329Z,9.93
2023-05-04T20:37:01.177Z,9.45
2023-05-04T20:39:28.356Z,8.93
2023-05-04T20:41:55.224Z,9.10
2023-05-04T20:44:22.287Z,11.10
2023-05-04T20:46:49.450Z,10.95
2023-05-04T20:49:16.450Z,8.43
2023-05-04T20:51:43.268Z,7.05
2023-05-04T20:54:10.396Z,12.13
2023-05-04T20:56:37.479Z,7.35
2023-05-04T20:59:04.374Z,14.80
2023-05-04T21:01:31.328Z,7.60
2023-05-04T21:03:58.428Z,11.67
2023-05-04T21:06:25.437Z,7.05
2023-05-04T21:08:52.417Z,10.45
2023-05-04T21:11:19.359Z,9.15
2023-05-04T21:13:46.258Z,8.23
2023-05-04T21:16:14.044Z,8.90
2023-05-04T21:18:41.012Z,12.80
2023-05-04T21:21:07.888Z,11.23
2023-05-04T21:23:34.699Z,8.63
2023-05-04T21:26:04.954Z,8.00
2023-05-04T21:28:32.194Z,8.60
2023-05-04T21:30:59.441Z,11.10
2023-05-04T21:33:26.316Z,6.75
2023-05-04T21:35:53.422Z,9.82
2023-05-04T21:38:22.058Z,12.10
2023-05-04T21:40:49.344Z,11.50
2023-05-04T21:43:16.389Z,9.90
2023-05-04T21:45:43.432Z,12.87
2023-05-04T21:48:10.425Z,11.35
2023-05-04T21:50:37.516Z,11.38
2023-05-04T21:53:04.465Z,8.43
2023-05-04T21:55:31.423Z,9.18
2023-05-04T21:57:58.418Z,8.98
2023-05-04T22:00:25.608Z,9.32
2023-05-04T22:02:55.061Z,11.50
2023-05-04T22:05:22.615Z,8.63
2023-05-04T22:07:50.278Z,11.15
2023-05-04T22:10:17.853Z,13.02
2023-05-04T22:12:44.954Z,8.88
2023-05-04T22:15:12.078Z,9.77
2023-05-04T22:17:39.327Z,11.40
2023-05-04T22:20:07.291Z,11.00
2023-05-04T22:22:35.125Z,10.38
2023-05-04T22:25:02.378Z,13.20
2023-05-04T22:27:29.480Z,14.27
2023-05-04T22:29:56.386Z,10.18
2023-05-04T22:32:23.306Z,10.43
2023-05-04T22:34:50.377Z,9.80
2023-05-04T22:37:17.262Z,8.30
2023-05-04T22:39:44.106Z,12.00
2023-05-04T22:42:10.917Z,13.07
2023-05-04T22:44:37.948Z,14.07
2023-05-04T22:47:05.070Z,9.43
2023-05-04T22:49:32.004Z,9.57
2023-05-04T22:51:58.897Z,12.48
2023-05-04T22:54:25.801Z,11.70
2023-05-04T22:56:52.908Z,12.40
2023-05-04T22:59:19.851Z,9.93
2023-05-04T23:01:46.936Z,10.70
2023-05-04T23:04:14.020Z,9.60
2023-05-04T23:06:40.911Z,13.65
2023-05-04T23:09:07.972Z,9.52
2023-05-04T23:11:34.906Z,8.70
2023-05-04T23:14:01.847Z,9.90
2023-05-04T23:16:29.094Z,11.80
2023-05-04T23:18:57.429Z,8.25
2023-05-04T23:32:28.276Z,13.43
2023-05-04T23:34:55.251Z,8.55
2023-05-04T23:37:22.778Z,15.20
2023-05-04T23:39:49.664Z,10.70
2023-05-04T23:42:16.616Z,12.52
2023-05-04T23:44:43.493Z,11.25
2023-05-04T23:47:10.296Z,12.43
2023-05-04T23:49:37.252Z,17.33
2023-05-04T23:52:04.178Z,15.48
2023-05-04T23:54:31.718Z,14.90
2023-05-04T23:56:59.350Z,11.30
2023-05-04T23:59:26.899Z,16.85
